Time,TemperatureF,DewpointF,PressureIn,WindDirection,WindDirectionDegrees,WindSpeedMPH,WindSpeedGustMPH,Humidity,HourlyPrecipIn,Conditions,Clouds,dailyrainin,SoftwareType,DateUTC
2013-03-05 00:00:00,48.4,25.1,30.21,North,0,0.0,0.0,40,0.00,CLR,BKN,0.00,WeatherDisplay:10.37,2013-03-05 05:00:00,
2013-03-05 00:01:00,48.2,25.0,30.21,North,0,0.0,0.0,40,0.00,CLR,BKN,0.00,WeatherDisplay:10.37,2013-03-05 05:01:00,
2013-03-05 00:06:00,47.8,24.7,30.21,North,0,0.0,0.0,40,0.00,CLR,BKN,0.00,WeatherDisplay:10.37,2013-03-05 05:06:00,
2013-03-05 00:11:00,47.7,24.5,30.21,North,0,0.0,0.0,40,0.00,CLR,BKN,0.00,WeatherDisplay:10.37,2013-03-05 05:11:00,
2013-03-05 00:16:00,47.7,25.7,30.18,North,0,0.0,0.0,42,0.00,CLR,BKN,0.00,WeatherDisplay:10.37,2013-03-05 05:16:00,
2013-03-05 00:21:00,47.7,25.7,30.18,North,0,0.0,0.0,42,0.00,CLR,BKN,0.00,WeatherDisplay:10.37,2013-03-05 05:21:00,
2013-03-05 00:26:00,47.5,25.5,30.18,North,0,0.0,0.0,42,0.00,CLR,BKN,0.00,WeatherDisplay:10.37,2013-03-05 05:26:00,
2013-03-05 00:31:00,47.5,25.5,30.18,North,0,0.0,0.0,42,0.00,CLR,BKN,0.00,WeatherDisplay:10.37,2013-03-05 05:31:00,
2013-03-05 00:36:00,47.3,25.9,30.18,North,0,0.0,0.0,43,0.00,CLR,BKN,0.00,WeatherDisplay:10.37,2013-03-05 05:36:00,
2013-03-05 00:41:00,47.3,25.9,30.18,North,0,0.0,0.0,43,0.00,CLR,BKN,0.00,WeatherDisplay:10.37,2013-03-05 05:41:00,
2013-03-05 00:46:00,47.3,25.9,30.18,North,0,0.0,0.0,43,0.00,CLR,BKN,0.00,WeatherDisplay:10.37,2013-03-05 05:46:00,
2013-03-05 00:51:00,46.9,26.1,30.18,North,0,0.0,0.0,44,0.00,CLR,BKN,0.00,WeatherDisplay:10.37,2013-03-05 05:51:00,
2013-03-05 00:56:00,46.6,25.3,30.18,North,0,0.0,0.0,43,0.00,CLR,BKN,0.00,WeatherDisplay:10.37,2013-03-05 05:56:00,
2013-03-05 01:01:00,46.4,25.6,30.18,North,0,0.0,0.0,44,0.00,CLR,BKN,0.00,WeatherDisplay:10.37,2013-03-05 06:01:00,
2013-03-05 01:06:00,46.8,26.5,30.18,North,0,0.0,0.0,45,0.00,CLR,BKN,0.00,WeatherDisplay:10.37,2013-03-05 06:06:00,
2013-03-05 01:11:00,46.8,27.6,30.18,North,0,0.0,0.0,47,0.00,CLR,BKN,0.00,WeatherDisplay:10.37,2013-03-05 06:11:00,
2013-03-05 01:16:00,47.1,28.9,30.18,North,0,0.0,0.0,49,0.00,CLR,BKN,0.00,WeatherDisplay:10.37,2013-03-05 06:16:00,
2013-03-05 01:21:00,47.1,30.4,30.18,North,0,0.0,0.0,52,0.00,CLR,BKN,0.00,WeatherDisplay:10.37,2013-03-05 06:21:00,
2013-03-05 01:26:00,47.1,31.3,30.18,North,0,0.0,0.0,54,0.00,CLR,BKN,0.00,WeatherDisplay:10.37,2013-03-05 06:26:00,
2013-03-05 01:31:00,47.1,31.8,30.18,North,0,0.0,0.0,55,0.00,CLR,BKN,0.00,WeatherDisplay:10.37,2013-03-05 06:31:00,
2013-03-05 01:36:00,46.9,31.6,30.18,North,0,0.0,0.0,55,0.00,CLR,BKN,0.00,WeatherDisplay:10.37,2013-03-05 06:36:00,
2013-03-05 01:41:00,47.1,32.7,30.18,North,0,0.0,0.0,57,0.00,CLR,BKN,0.00,WeatherDisplay:10.37,2013-03-05 06:41:00,
2013-03-05 01:46:00,47.3,33.3,30.18,North,0,0.0,0.0,58,0.00,CLR,BKN,0.00,WeatherDisplay:10.37,2013-03-05 06:46:00,
2013-03-05 01:51:00,47.3,33.3,30.18,North,0,0.0,0.0,58,0.00,CLR,BKN,0.00,WeatherDisplay:10.37,2013-03-05 06:51:00,
2013-03-05 01:56:00,47.5,33.4,30.18,North,0,0.0,0.0,58,0.00,CLR,BKN,0.00,WeatherDisplay:10.37,2013-03-05 06:56:00,
2013-03-05 02:01:00,47.7,34.4,30.15,North,0,0.0,0.0,60,0.00,CLR,BKN,0.00,WeatherDisplay:10.37,2013-03-05 07:01:00,
2013-03-05 02:06:00,47.7,34.4,30.15,North,0,0.0,0.0,60,0.00,CLR,BKN,0.00,WeatherDisplay:10.37,2013-03-05 07:06:00,
2013-03-05 02:11:00,48.0,35.6,30.15,North,0,0.0,0.0,62,0.00,CLR,BKN,0.00,WeatherDisplay:10.37,2013-03-05 07:11:00,
2013-03-05 02:16:00,47.8,35.0,30.15,North,0,0.0,0.0,61,0.00,CLR,BKN,0.00,WeatherDisplay:10.37,2013-03-05 07:16:00,
2013-03-05 02:21:00,47.8,34.6,30.15,North,0,0.0,0.0,60,0.00,CLR,BKN,0.00,WeatherDisplay:10.37,2013-03-05 07:21:00,
2013-03-05 02:26:00,48.0,34.8,30.15,North,0,0.0,0.0,60,0.00,CLR,BKN,0.00,WeatherDisplay:10.37,2013-03-05 07:26:00,
2013-03-05 02:31:00,47.8,35.0,30.15,North,0,0.0,0.0,61,0.00,CLR,BKN,0.00,WeatherDisplay:10.37,2013-03-05 07:31:00,
2013-03-05 02:36:00,47.8,35.0,30.15,North,0,0.0,0.0,61,0.00,CLR,BKN,0.00,WeatherDisplay:10.37,2013-03-05 07:36:00,
2013-03-05 02:41:00,47.8,35.0,30.15,North,0,0.0,0.0,61,0.00,CLR,BKN,0.00,WeatherDisplay:10.37,2013-03-05 07:41:00,
2013-03-05 02:46:00,48.0,36.0,30.15,North,0,0.0,0.0,63,0.00,CLR,BKN,0.00,WeatherDisplay:10.37,2013-03-05 07:46:00,
2013-03-05 02:51:00,47.7,34.4,30.15,North,0,0.0,0.0,60,0.00,CLR,BKN,0.00,WeatherDisplay:10.37,2013-03-05 07:51:00,
2013-03-05 02:56:00,47.3,33.3,30.15,North,0,0.0,0.0,58,0.00,CLR,BKN,0.00,WeatherDisplay:10.37,2013-03-05 07:56:00,
2013-03-05 03:01:00,47.5,34.3,30.15,North,0,0.0,0.0,60,0.00,CLR,BKN,0.00,WeatherDisplay:10.37,2013-03-05 08:01:00,
2013-03-05 03:06:00,47.3,33.3,30.15,North,0,0.0,0.0,58,0.00,CLR,BKN,0.00,WeatherDisplay:10.37,2013-03-05 08:06:00,
2013-03-05 03:11:00,47.3,33.3,30.15,North,0,0.0,0.0,58,0.00,CLR,BKN,0.00,WeatherDisplay:10.37,2013-03-05 08:11:00,
2013-03-05 03:16:00,47.1,33.1,30.15,North,0,0.0,0.0,58,0.00,CLR,BKN,0.00,WeatherDisplay:10.37,2013-03-05 08:16:00,
2013-03-05 03:21:00,47.1,33.1,30.15,North,0,0.0,0.0,58,0.00,CLR,BKN,0.00,WeatherDisplay:10.37,2013-03-05 08:21:00,
2013-03-05 03:26:00,46.9,32.5,30.15,North,0,0.0,0.0,57,0.00,CLR,BKN,0.00,WeatherDisplay:10.37,2013-03-05 08:26:00,
2013-03-05 03:31:00,46.9,32.5,30.15,North,0,0.0,0.0,57,0.00,CLR,BKN,0.00,WeatherDisplay:10.37,2013-03-05 08:31:00,
2013-03-05 03:36:00,47.3,33.3,30.15,North,0,0.0,0.0,58,0.00,CLR,BKN,0.00,WeatherDisplay:10.37,2013-03-05 08:36:00,
2013-03-05 03:41:00,47.5,33.4,30.15,North,0,0.0,0.0,58,0.00,CLR,BKN,0.00,WeatherDisplay:10.37,2013-03-05 08:41:00,
2013-03-05 03:46:00,47.5,33.0,30.15,North,0,0.0,0.0,57,0.00,CLR,BKN,0.00,WeatherDisplay:10.37,2013-03-05 08:46:00,
2013-03-05 03:51:00,47.7,33.2,30.15,North,0,0.0,0.0,57,0.00,CLR,BKN,0.00,WeatherDisplay:10.37,2013-03-05 08:51:00,
2013-03-05 03:56:00,48.0,33.9,30.15,North,0,0.0,0.0,58,0.00,CLR,BKN,0.00,WeatherDisplay:10.37,2013-03-05 08:56:00,
2013-03-05 04:01:00,48.2,32.8,30.15,North,0,0.0,0.0,55,0.00,CLR,BKN,0.00,WeatherDisplay:10.37,2013-03-05 09:01:00,
2013-03-05 04:06:00,48.2,30.9,30.15,North,0,0.0,0.0,51,0.00,CLR,BKN,0.00,WeatherDisplay:10.37,2013-03-05 09:06:00,
2013-03-05 04:11:00,48.6,29.7,30.15,North,0,0.0,0.0,48,0.00,CLR,BKN,0.00,WeatherDisplay:10.37,2013-03-05 09:11:00,
2013-03-05 04:16:00,48.6,29.7,30.15,North,0,0.0,0.0,48,0.00,CLR,BKN,0.00,WeatherDisplay:10.37,2013-03-05 09:16:00,
2013-03-05 04:21:00,48.6,29.2,30.15,North,0,0.0,0.0,47,0.00,CLR,BKN,0.00,WeatherDisplay:10.37,2013-03-05 09:21:00,
2013-03-05 04:26:00,48.6,28.2,30.15,North,0,0.0,0.0,45,0.00,CLR,BKN,0.00,WeatherDisplay:10.37,2013-03-05 09:26:00,
2013-03-05 04:31:00,48.6,27.6,30.15,North,0,0.0,0.0,44,0.00,CLR,BKN,0.00,WeatherDisplay:10.37,2013-03-05 09:31:00,
2013-03-05 04:36:00,48.7,27.8,30.15,North,0,0.0,0.0,44,0.00,CLR,BKN,0.00,WeatherDisplay:10.37,2013-03-05 09:36:00,
2013-03-05 04:41:00,48.7,27.2,30.15,North,0,0.0,0.0,43,0.00,CLR,BKN,0.00,WeatherDisplay:10.37,2013-03-05 09:41:00,
2013-03-05 04:46:00,48.7,26.1,30.15,North,0,0.0,0.0,41,0.00,CLR,BKN,0.00,WeatherDisplay:10.37,2013-03-05 09:46:00,
2013-03-05 04:51:00,48.7,26.1,30.15,North,0,0.0,0.0,41,0.00,CLR,BKN,0.00,WeatherDisplay:10.37,2013-03-05 09:51:00,
2013-03-05 04:56:00,48.6,25.9,30.15,North,0,0.0,0.0,41,0.00,CLR,BKN,0.00,WeatherDisplay:10.37,2013-03-05 09:56:00,
2013-03-05 05:01:00,48.6,25.3,30.15,North,0,0.0,0.0,40,0.00,CLR,BKN,0.00,WeatherDisplay:10.37,2013-03-05 10:01:00,
2013-03-05 05:06:00,48.7,26.1,30.15,North,0,0.0,0.0,41,0.00,CLR,BKN,0.00,WeatherDisplay:10.37,2013-03-05 10:06:00,
2013-03-05 05:11:00,48.9,25.6,30.15,North,0,0.0,0.0,40,0.00,CLR,BKN,0.00,WeatherDisplay:10.37,2013-03-05 10:11:00,
2013-03-05 05:16:00,49.3,26.0,30.15,North,0,0.0,0.0,40,0.00,CLR,BKN,0.00,WeatherDisplay:10.37,2013-03-05 10:16:00,
2013-03-05 05:21:00,49.1,25.2,30.15,North,0,0.0,0.0,39,0.00,CLR,BKN,0.00,WeatherDisplay:10.37,2013-03-05 10:21:00,
2013-03-05 05:26:00,48.9,25.0,30.15,North,0,0.0,0.0,39,0.00,CLR,BKN,0.00,WeatherDisplay:10.37,2013-03-05 10:26:00,
2013-03-05 05:31:00,48.7,24.9,30.15,North,0,0.0,0.0,39,0.00,CLR,BKN,0.00,WeatherDisplay:10.37,2013-03-05 10:31:00,
2013-03-05 05:36:00,48.6,24.7,30.15,North,0,0.0,0.0,39,0.00,CLR,BKN,0.00,WeatherDisplay:10.37,2013-03-05 10:36:00,
2013-03-05 05:41:00,48.4,24.5,30.15,North,0,0.0,0.0,39,0.00,CLR,BKN,0.00,WeatherDisplay:10.37,2013-03-05 10:41:00,
2013-03-05 05:46:00,48.4,24.5,30.18,North,0,0.0,0.0,39,0.00,CLR,BKN,0.00,WeatherDisplay:10.37,2013-03-05 10:46:00,
2013-03-05 05:51:00,48.4,25.1,30.18,North,0,0.0,0.0,40,0.00,CLR,BKN,0.00,WeatherDisplay:10.37,2013-03-05 10:51:00,
2013-03-05 05:56:00,48.6,25.3,30.18,North,0,0.0,0.0,40,0.00,CLR,BKN,0.00,WeatherDisplay:10.37,2013-03-05 10:56:00,
2013-03-05 06:02:00,48.7,25.5,30.18,North,0,0.0,0.0,40,0.00,CLR,BKN,0.00,WeatherDisplay:10.37,2013-03-05 11:02:00,
2013-03-05 06:07:00,48.4,25.1,30.18,North,0,0.0,0.0,40,0.00,CLR,BKN,0.00,WeatherDisplay:10.37,2013-03-05 11:07:00,
2013-03-05 06:12:00,48.6,25.9,30.18,North,0,0.0,0.0,41,0.00,CLR,BKN,0.00,WeatherDisplay:10.37,2013-03-05 11:12:00,
2013-03-05 06:17:00,48.7,26.1,30.18,North,0,0.0,0.0,41,0.00,CLR,BKN,0.00,WeatherDisplay:10.37,2013-03-05 11:17:00,
2013-03-05 06:22:00,48.6,25.9,30.18,North,0,0.0,0.0,41,0.00,CLR,BKN,0.00,WeatherDisplay:10.37,2013-03-05 11:22:00,
2013-03-05 06:27:00,47.8,25.2,30.18,North,0,0.0,0.0,41,0.00,CLR,BKN,0.00,WeatherDisplay:10.37,2013-03-05 11:27:00,
2013-03-05 06:32:00,47.5,25.5,30.18,North,0,0.0,0.0,42,0.00,CLR,BKN,0.00,WeatherDisplay:10.37,2013-03-05 11:32:00,
2013-03-05 06:37:00,46.9,25.0,30.18,North,0,0.0,0.0,42,0.00,CLR,BKN,0.00,WeatherDisplay:10.37,2013-03-05 11:37:00,
2013-03-05 06:42:00,46.6,25.3,30.18,North,0,0.0,0.0,43,0.00,CLR,BKN,0.00,WeatherDisplay:10.37,2013-03-05 11:42:00,
2013-03-05 06:47:00,46.6,26.4,30.18,North,0,0.0,0.0,45,0.00,CLR,BKN,0.00,WeatherDisplay:10.37,2013-03-05 11:47:00,
2013-03-05 06:52:00,46.3,26.7,30.18,North,0,0.0,0.0,46,0.00,CLR,BKN,0.00,WeatherDisplay:10.37,2013-03-05 11:52:00,
2013-03-05 06:57:00,46.4,27.8,30.18,North,0,0.0,0.0,48,0.00,CLR,BKN,0.00,WeatherDisplay:10.37,2013-03-05 11:57:00,
2013-03-05 07:02:00,46.8,29.1,30.18,North,0,0.0,0.0,50,0.00,CLR,BKN,0.00,WeatherDisplay:10.37,2013-03-05 12:02:00,
2013-03-05 07:07:00,46.8,29.1,30.18,North,0,0.0,0.0,50,0.00,CLR,BKN,0.00,WeatherDisplay:10.37,2013-03-05 12:07:00,
2013-03-05 07:12:00,46.9,29.2,30.18,North,0,0.0,0.0,50,0.00,CLR,BKN,0.00,WeatherDisplay:10.37,2013-03-05 12:12:00,
2013-03-05 07:17:00,47.5,30.2,30.18,North,0,0.0,0.0,51,0.00,CLR,BKN,0.00,WeatherDisplay:10.37,2013-03-05 12:17:00,
2013-03-05 07:22:00,48.4,31.5,30.18,North,0,0.0,0.0,52,0.00,CLR,BKN,0.00,WeatherDisplay:10.37,2013-03-05 12:22:00,
2013-03-05 07:27:00,49.3,32.9,30.18,North,0,0.0,0.0,53,0.00,CLR,BKN,0.00,WeatherDisplay:10.37,2013-03-05 12:27:00,
2013-03-05 07:32:00,50.4,34.3,30.18,North,0,0.0,0.0,54,0.00,CLR,BKN,0.00,WeatherDisplay:10.37,2013-03-05 12:32:00,
2013-03-05 07:37:00,51.1,35.0,30.18,North,0,0.0,0.0,54,0.00,CLR,BKN,0.00,WeatherDisplay:10.37,2013-03-05 12:37:00,
2013-03-05 07:42:00,52.2,35.5,30.18,North,0,0.0,0.0,53,0.00,CLR,BKN,0.00,WeatherDisplay:10.37,2013-03-05 12:42:00,
2013-03-05 07:47:00,53.4,36.7,30.18,North,0,0.0,0.0,53,0.00,CLR,BKN,0.00,WeatherDisplay:10.37,2013-03-05 12:47:00,
2013-03-05 07:52:00,55.0,37.7,30.18,North,0,0.0,0.0,52,0.00,CLR,BKN,0.00,WeatherDisplay:10.37,2013-03-05 12:52:00,
2013-03-05 07:57:00,55.8,36.4,30.18,North,0,0.0,0.0,48,0.00,CLR,BKN,0.00,WeatherDisplay:10.37,2013-03-05 12:57:00,
2013-03-05 08:02:00,56.3,35.8,30.18,North,0,0.0,0.0,46,0.00,CLR,BKN,0.00,WeatherDisplay:10.37,2013-03-05 13:02:00,
2013-03-05 08:07:00,57.2,33.7,30.18,North,0,0.0,0.0,41,0.00,CLR,BKN,0.00,WeatherDisplay:10.37,2013-03-05 13:07:00,
2013-03-05 08:12:00,57.9,32.4,30.18,North,0,0.0,0.0,38,0.00,CLR,BKN,0.00,WeatherDisplay:10.37,2013-03-05 13:12:00,
2013-03-05 08:17:00,58.1,31.3,30.21,North,0,0.0,0.0,36,0.00,CLR,BKN,0.00,WeatherDisplay:10.37,2013-03-05 13:17:00,
2013-03-05 08:22:00,58.5,30.9,30.21,North,0,0.0,0.0,35,0.00,CLR,BKN,0.00,WeatherDisplay:10.37,2013-03-05 13:22:00,
2013-03-05 08:27:00,59.0,29.9,30.21,North,0,0.0,0.0,33,0.00,CLR,BKN,0.00,WeatherDisplay:10.37,2013-03-05 13:27:00,
2013-03-05 08:32:00,59.4,30.2,30.18,North,0,0.0,0.0,33,0.00,CLR,BKN,0.00,WeatherDisplay:10.37,2013-03-05 13:32:00,
2013-03-05 08:37:00,59.7,28.2,30.18,North,0,0.0,0.0,30,0.00,CLR,BKN,0.00,WeatherDisplay:10.37,2013-03-05 13:37:00,
2013-03-05 08:42:00,60.3,28.7,30.18,North,0,0.0,0.0,30,0.00,CLR,BKN,0.00,WeatherDisplay:10.37,2013-03-05 13:42:00,
2013-03-05 08:47:00,60.4,27.1,30.18,North,0,0.0,0.0,28,0.00,CLR,BKN,0.00,WeatherDisplay:10.37,2013-03-05 13:47:00,
2013-03-05 08:52:00,61.9,27.5,30.18,North,0,0.0,0.0,27,0.00,CLR,BKN,0.00,WeatherDisplay:10.37,2013-03-05 13:52:00,
2013-03-05 08:57:00,61.9,25.6,30.18,North,0,0.0,0.0,25,0.00,CLR,BKN,0.00,WeatherDisplay:10.37,2013-03-05 13:57:00,
2013-03-05 09:02:00,62.1,25.8,30.18,North,0,0.0,0.0,25,0.00,CLR,BKN,0.00,WeatherDisplay:10.37,2013-03-05 14:02:00,
2013-03-05 09:07:00,62.4,25.1,30.18,North,0,0.0,0.0,24,0.00,CLR,BKN,0.00,WeatherDisplay:10.37,2013-03-05 14:07:00,
2013-03-05 09:12:00,63.0,25.6,30.18,North,0,0.0,0.0,24,0.00,CLR,BKN,0.00,WeatherDisplay:10.37,2013-03-05 14:12:00,
2013-03-05 09:17:00,63.5,25.0,30.18,North,0,0.0,0.0,23,0.00,CLR,BKN,0.00,WeatherDisplay:10.37,2013-03-05 14:17:00,
2013-03-05 09:22:00,64.2,23.4,30.18,North,0,0.0,0.0,21,0.00,CLR,BKN,0.00,WeatherDisplay:10.37,2013-03-05 14:22:00,
2013-03-05 09:27:00,64.6,20.1,30.18,North,0,0.0,0.0,18,0.00,CLR,BKN,0.00,WeatherDisplay:10.37,2013-03-05 14:27:00,
2013-03-05 09:32:00,64.6,20.1,30.18,North,0,0.0,0.0,18,0.00,CLR,BKN,0.00,WeatherDisplay:10.37,2013-03-05 14:32:00,
2013-03-05 09:37:00,64.9,20.4,30.18,North,0,0.0,0.0,18,0.00,CLR,BKN,0.00,WeatherDisplay:10.37,2013-03-05 14:37:00,
2013-03-05 09:42:00,65.5,20.8,30.18,North,0,0.0,0.0,18,0.00,CLR,BKN,0.00,WeatherDisplay:10.37,2013-03-05 14:42:00,
2013-03-05 09:47:00,66.4,17.3,30.21,North,0,0.0,0.0,15,0.00,CLR,BKN,0.00,WeatherDisplay:10.37,2013-03-05 14:47:00,
2013-03-05 09:52:00,66.4,17.3,30.21,North,0,0.0,0.0,15,0.00,CLR,BKN,0.00,WeatherDisplay:10.37,2013-03-05 14:52:00,
2013-03-05 09:57:00,66.6,17.4,30.21,North,0,0.0,0.0,15,0.00,CLR,BKN,0.00,WeatherDisplay:10.37,2013-03-05 14:57:00,
2013-03-05 10:02:00,66.7,17.6,30.18,North,0,0.0,0.0,15,0.00,CLR,BKN,0.00,WeatherDisplay:10.37,2013-03-05 15:02:00,
2013-03-05 10:07:00,67.5,18.1,30.18,North,0,0.0,0.0,15,0.00,CLR,BKN,0.00,WeatherDisplay:10.37,2013-03-05 15:07:00,
2013-03-05 10:12:00,67.6,18.3,30.18,North,0,0.0,0.0,15,0.00,CLR,BKN,0.00,WeatherDisplay:10.37,2013-03-05 15:12:00,
2013-03-05 10:17:00,68.4,18.9,30.18,North,0,0.0,0.0,15,0.00,CLR,BKN,0.00,WeatherDisplay:10.37,2013-03-05 15:17:00,
2013-03-05 10:22:00,68.2,18.7,30.18,North,0,0.0,0.0,15,0.00,CLR,BKN,0.00,WeatherDisplay:10.37,2013-03-05 15:22:00,
2013-03-05 10:27:00,68.0,18.6,30.18,North,0,0.0,0.0,15,0.00,CLR,BKN,0.00,WeatherDisplay:10.37,2013-03-05 15:27:00,
2013-03-05 10:32:00,68.2,18.7,30.21,North,0,0.0,0.0,15,0.00,CLR,BKN,0.00,WeatherDisplay:10.37,2013-03-05 15:32:00,
2013-03-05 10:37:00,69.1,19.4,30.21,North,0,0.0,0.0,15,0.00,CLR,BKN,0.00,WeatherDisplay:10.37,2013-03-05 15:37:00,
2013-03-05 10:42:00,68.9,19.3,30.21,North,0,0.0,0.0,15,0.00,CLR,BKN,0.00,WeatherDisplay:10.37,2013-03-05 15:42:00,
2013-03-05 10:47:00,69.4,19.7,30.18,North,0,0.0,0.0,15,0.00,CLR,BKN,0.00,WeatherDisplay:10.37,2013-03-05 15:47:00,
2013-03-05 10:52:00,69.3,19.6,30.18,North,0,0.0,0.0,15,0.00,CLR,BKN,0.00,WeatherDisplay:10.37,2013-03-05 15:52:00,
2013-03-05 10:57:00,69.8,18.4,30.18,North,0,0.0,0.0,14,0.00,CLR,BKN,0.00,WeatherDisplay:10.37,2013-03-05 15:57:00,
2013-03-05 11:02:00,70.2,18.7,30.18,North,0,0.0,0.0,14,0.00,CLR,BKN,0.00,WeatherDisplay:10.37,2013-03-05 16:02:00,
2013-03-05 11:07:00,70.7,19.1,30.18,North,0,0.0,0.0,14,0.00,CLR,BKN,0.00,WeatherDisplay:10.37,2013-03-05 16:07:00,
2013-03-05 11:12:00,70.3,18.8,30.18,North,0,0.0,0.0,14,0.00,CLR,BKN,0.00,WeatherDisplay:10.37,2013-03-05 16:12:00,
2013-03-05 11:17:00,70.5,19.0,30.18,North,0,0.0,0.0,14,0.00,CLR,BKN,0.00,WeatherDisplay:10.37,2013-03-05 16:17:00,
2013-03-05 11:22:00,70.5,19.0,30.18,North,0,0.0,0.0,14,0.00,CLR,BKN,0.00,WeatherDisplay:10.37,2013-03-05 16:22:00,
2013-03-05 11:27:00,71.1,19.4,30.18,North,0,0.0,0.0,14,0.00,CLR,BKN,0.00,WeatherDisplay:10.37,2013-03-05 16:27:00,
2013-03-05 11:32:00,71.4,19.7,30.18,North,0,0.0,0.0,14,0.00,CLR,BKN,0.00,WeatherDisplay:10.37,2013-03-05 16:32:00,
2013-03-05 11:37:00,71.2,19.5,30.18,North,0,0.0,0.0,14,0.00,CLR,BKN,0.00,WeatherDisplay:10.37,2013-03-05 16:37:00,
2013-03-05 11:42:00,71.2,19.5,30.18,North,0,0.0,0.0,14,0.00,CLR,BKN,0.00,WeatherDisplay:10.37,2013-03-05 16:42:00,
2013-03-05 11:47:00,71.2,19.5,30.18,North,0,0.0,0.0,14,0.00,CLR,BKN,0.00,WeatherDisplay:10.37,2013-03-05 16:47:00,
2013-03-05 11:52:00,71.4,19.7,30.18,North,0,0.0,0.0,14,0.00,CLR,BKN,0.00,WeatherDisplay:10.37,2013-03-05 16:52:00,
2013-03-05 11:57:00,72.0,20.1,30.18,North,0,0.0,0.0,14,0.00,CLR,BKN,0.00,WeatherDisplay:10.37,2013-03-05 16:57:00,
2013-03-05 12:02:00,72.3,20.4,30.18,North,0,0.0,0.0,14,0.00,CLR,BKN,0.00,WeatherDisplay:10.37,2013-03-05 17:02:00,
2013-03-05 12:07:00,72.5,20.5,30.18,North,0,0.0,0.0,14,0.00,CLR,BKN,0.00,WeatherDisplay:10.37,2013-03-05 17:07:00,
2013-03-05 12:12:00,71.8,20.0,30.18,North,0,0.0,0.0,14,0.00,CLR,BKN,0.00,WeatherDisplay:10.37,2013-03-05 17:12:00,
2013-03-05 12:17:00,72.1,20.3,30.18,North,0,0.0,0.0,14,0.00,CLR,BKN,0.00,WeatherDisplay:10.37,2013-03-05 17:17:00,
2013-03-05 12:22:00,72.0,20.1,30.18,North,0,0.0,0.0,14,0.00,CLR,BKN,0.00,WeatherDisplay:10.37,2013-03-05 17:22:00,
2013-03-05 12:27:00,72.1,20.3,30.18,North,0,0.0,0.0,14,0.00,CLR,BKN,0.00,WeatherDisplay:10.37,2013-03-05 17:27:00,
2013-03-05 12:32:00,72.0,20.1,30.18,North,0,0.0,0.0,14,0.00,CLR,BKN,0.00,WeatherDisplay:10.37,2013-03-05 17:32:00,
2013-03-05 12:37:00,72.0,20.1,30.18,North,0,0.0,0.0,14,0.00,CLR,BKN,0.00,WeatherDisplay:10.37,2013-03-05 17:37:00,
2013-03-05 12:42:00,72.7,20.7,30.18,North,0,0.0,0.0,14,0.00,CLR,BKN,0.00,WeatherDisplay:10.37,2013-03-05 17:42:00,
2013-03-05 12:47:00,72.9,20.8,30.15,North,0,0.0,0.0,14,0.00,CLR,BKN,0.00,WeatherDisplay:10.37,2013-03-05 17:47:00,
2013-03-05 12:52:00,72.3,20.4,30.15,North,0,0.0,0.0,14,0.00,CLR,BKN,0.00,WeatherDisplay:10.37,2013-03-05 17:52:00,
2013-03-05 12:57:00,72.7,20.7,30.15,North,0,0.0,0.0,14,0.00,CLR,BKN,0.00,WeatherDisplay:10.37,2013-03-05 17:57:00,
2013-03-05 13:02:00,72.3,20.4,30.15,North,0,0.0,0.0,14,0.00,CLR,BKN,0.00,WeatherDisplay:10.37,2013-03-05 18:02:00,
2013-03-05 13:07:00,72.1,20.3,30.15,North,0,0.0,0.0,14,0.00,CLR,BKN,0.00,WeatherDisplay:10.37,2013-03-05 18:07:00,
2013-03-05 13:12:00,72.3,20.4,30.15,North,0,0.0,0.0,14,0.00,CLR,BKN,0.00,WeatherDisplay:10.37,2013-03-05 18:12:00,
2013-03-05 13:17:00,72.9,20.8,30.15,North,0,0.0,0.0,14,0.00,CLR,BKN,0.00,WeatherDisplay:10.37,2013-03-05 18:17:00,
2013-03-05 13:22:00,72.5,20.5,30.15,North,0,0.0,0.0,14,0.00,CLR,BKN,0.00,WeatherDisplay:10.37,2013-03-05 18:22:00,
2013-03-05 13:27:00,72.9,20.8,30.15,North,0,0.0,0.0,14,0.00,CLR,BKN,0.00,WeatherDisplay:10.37,2013-03-05 18:27:00,
2013-03-05 13:32:00,72.9,20.8,30.15,North,0,0.0,0.0,14,0.00,CLR,BKN,0.00,WeatherDisplay:10.37,2013-03-05 18:32:00,
2013-03-05 13:37:00,72.9,20.8,30.15,North,0,0.0,0.0,14,0.00,CLR,BKN,0.00,WeatherDisplay:10.37,2013-03-05 18:37:00,
2013-03-05 13:42:00,73.2,21.1,30.15,North,0,0.0,0.0,14,0.00,CLR,BKN,0.00,WeatherDisplay:10.37,2013-03-05 18:42:00,
2013-03-05 13:47:00,73.6,19.7,30.15,North,0,0.0,0.0,13,0.00,CLR,BKN,0.00,WeatherDisplay:10.37,2013-03-05 18:47:00,
2013-03-05 13:52:00,73.4,19.5,30.15,North,0,0.0,0.0,13,0.00,CLR,BKN,0.00,WeatherDisplay:10.37,2013-03-05 18:52:00,
2013-03-05 13:57:00,73.4,19.5,30.15,North,0,0.0,0.0,13,0.00,CLR,BKN,0.00,WeatherDisplay:10.37,2013-03-05 18:57:00,
2013-03-05 14:02:00,73.2,21.1,30.12,North,0,0.0,0.0,14,0.00,CLR,BKN,0.00,WeatherDisplay:10.37,2013-03-05 19:02:00,
2013-03-05 14:07:00,73.2,21.1,30.12,North,0,0.0,0.0,14,0.00,CLR,BKN,0.00,WeatherDisplay:10.37,2013-03-05 19:07:00,
2013-03-05 14:12:00,74.3,20.2,30.12,North,0,0.0,0.0,13,0.00,CLR,BKN,0.00,WeatherDisplay:10.37,2013-03-05 19:12:00,
2013-03-05 14:17:00,74.3,20.2,30.12,North,0,0.0,0.0,13,0.00,CLR,BKN,0.00,WeatherDisplay:10.37,2013-03-05 19:17:00,
2013-03-05 14:22:00,74.1,20.1,30.12,North,0,0.0,0.0,13,0.00,CLR,BKN,0.00,WeatherDisplay:10.37,2013-03-05 19:22:00,
2013-03-05 14:28:00,74.3,20.2,30.12,North,0,0.0,0.0,13,0.00,CLR,BKN,0.00,WeatherDisplay:10.37,2013-03-05 19:28:00,
2013-03-05 14:33:00,74.5,20.4,30.12,North,0,0.0,0.0,13,0.00,CLR,BKN,0.00,WeatherDisplay:10.37,2013-03-05 19:33:00,
2013-03-05 14:38:00,74.3,20.2,30.12,North,0,0.0,0.0,13,0.00,CLR,BKN,0.00,WeatherDisplay:10.37,2013-03-05 19:38:00,
2013-03-05 14:43:00,74.3,20.2,30.12,North,0,0.0,0.0,13,0.00,CLR,BKN,0.00,WeatherDisplay:10.37,2013-03-05 19:43:00,
2013-03-05 14:48:00,74.2,20.2,30.12,North,0,0.0,0.0,13,0.00,CLR,BKN,0.00,WeatherDisplay:10.37,2013-03-05 19:48:00,
2013-03-05 14:53:00,73.8,19.8,30.12,North,0,0.0,0.0,13,0.00,CLR,BKN,0.00,WeatherDisplay:10.37,2013-03-05 19:53:00,
2013-03-05 14:58:00,73.9,19.9,30.12,North,0,0.0,0.0,13,0.00,CLR,BKN,0.00,WeatherDisplay:10.37,2013-03-05 19:58:00,
2013-03-05 15:03:00,73.8,19.8,30.12,North,0,0.0,0.0,13,0.00,CLR,BKN,0.00,WeatherDisplay:10.37,2013-03-05 20:03:00,
2013-03-05 15:08:00,73.8,19.8,30.12,North,0,0.0,0.0,13,0.00,CLR,BKN,0.00,WeatherDisplay:10.37,2013-03-05 20:08:00,
2013-03-05 15:13:00,73.2,21.1,30.12,North,0,0.0,0.0,14,0.00,CLR,BKN,0.00,WeatherDisplay:10.37,2013-03-05 20:13:00,
2013-03-05 15:18:00,73.0,21.0,30.12,North,0,0.0,0.0,14,0.00,CLR,BKN,0.00,WeatherDisplay:10.37,2013-03-05 20:18:00,
2013-03-05 15:23:00,73.4,19.5,30.12,North,0,0.0,0.0,13,0.00,CLR,BKN,0.00,WeatherDisplay:10.37,2013-03-05 20:23:00,
2013-03-05 15:28:00,73.2,21.1,30.12,North,0,0.0,0.0,14,0.00,CLR,BKN,0.00,WeatherDisplay:10.37,2013-03-05 20:28:00,
2013-03-05 15:33:00,73.2,21.1,30.12,North,0,0.0,0.0,14,0.00,CLR,BKN,0.00,WeatherDisplay:10.37,2013-03-05 20:33:00,
2013-03-05 15:38:00,73.0,21.0,30.12,North,0,0.0,0.0,14,0.00,CLR,BKN,0.00,WeatherDisplay:10.37,2013-03-05 20:38:00,
2013-03-05 15:43:00,73.4,19.5,30.12,North,0,0.0,0.0,13,0.00,CLR,BKN,0.00,WeatherDisplay:10.37,2013-03-05 20:43:00,
2013-03-05 15:48:00,72.9,20.8,30.12,North,0,0.0,0.0,14,0.00,CLR,BKN,0.00,WeatherDisplay:10.37,2013-03-05 20:48:00,
2013-03-05 15:53:00,72.7,20.7,30.12,North,0,0.0,0.0,14,0.00,CLR,BKN,0.00,WeatherDisplay:10.37,2013-03-05 20:53:00,
2013-03-05 15:58:00,72.7,20.7,30.12,North,0,0.0,0.0,14,0.00,CLR,BKN,0.00,WeatherDisplay:10.37,2013-03-05 20:58:00,
2013-03-05 16:03:00,72.7,20.7,30.12,North,0,0.0,0.0,14,0.00,CLR,BKN,0.00,WeatherDisplay:10.37,2013-03-05 21:03:00,
2013-03-05 16:08:00,72.7,20.7,30.12,North,0,0.0,0.0,14,0.00,CLR,BKN,0.00,WeatherDisplay:10.37,2013-03-05 21:08:00,
2013-03-05 16:13:00,72.9,20.8,30.12,North,0,0.0,0.0,14,0.00,CLR,BKN,0.00,WeatherDisplay:10.37,2013-03-05 21:13:00,
2013-03-05 16:18:00,72.3,20.4,30.12,North,0,0.0,0.0,14,0.00,CLR,BKN,0.00,WeatherDisplay:10.37,2013-03-05 21:18:00,
2013-03-05 16:23:00,72.3,20.4,30.12,North,0,0.0,0.0,14,0.00,CLR,BKN,0.00,WeatherDisplay:10.37,2013-03-05 21:23:00,
2013-03-05 16:28:00,72.3,20.4,30.12,North,0,0.0,0.0,14,0.00,CLR,BKN,0.00,WeatherDisplay:10.37,2013-03-05 21:28:00,
2013-03-05 16:33:00,72.5,20.5,30.12,North,0,0.0,0.0,14,0.00,CLR,BKN,0.00,WeatherDisplay:10.37,2013-03-05 21:33:00,
2013-03-05 16:38:00,72.3,20.4,30.12,North,0,0.0,0.0,14,0.00,CLR,BKN,0.00,WeatherDisplay:10.37,2013-03-05 21:38:00,
2013-03-05 16:43:00,72.3,20.4,30.12,North,0,0.0,0.0,14,0.00,CLR,BKN,0.00,WeatherDisplay:10.37,2013-03-05 21:43:00,
2013-03-05 16:48:00,72.1,20.3,30.12,North,0,0.0,0.0,14,0.00,CLR,BKN,0.00,WeatherDisplay:10.37,2013-03-05 21:48:00,
2013-03-05 16:53:00,71.8,20.0,30.12,North,0,0.0,0.0,14,0.00,CLR,BKN,0.00,WeatherDisplay:10.37,2013-03-05 21:53:00,
2013-03-05 16:58:00,72.0,20.1,30.12,North,0,0.0,0.0,14,0.00,CLR,BKN,0.00,WeatherDisplay:10.37,2013-03-05 21:58:00,
2013-03-05 17:03:00,71.6,19.8,30.12,North,0,0.0,0.0,14,0.00,CLR,BKN,0.00,WeatherDisplay:10.37,2013-03-05 22:03:00,
2013-03-05 17:08:00,71.4,19.7,30.12,North,0,0.0,0.0,14,0.00,CLR,BKN,0.00,WeatherDisplay:10.37,2013-03-05 22:08:00,
2013-03-05 17:13:00,71.4,19.7,30.12,North,0,0.0,0.0,14,0.00,CLR,BKN,0.00,WeatherDisplay:10.37,2013-03-05 22:13:00,
2013-03-05 17:18:00,71.4,19.7,30.12,North,0,0.0,0.0,14,0.00,CLR,BKN,0.00,WeatherDisplay:10.37,2013-03-05 22:18:00,
2013-03-05 17:23:00,71.4,19.7,30.12,North,0,0.0,0.0,14,0.00,CLR,BKN,0.00,WeatherDisplay:10.37,2013-03-05 22:23:00,
2013-03-05 17:28:00,71.8,20.0,30.12,North,0,0.0,0.0,14,0.00,CLR,BKN,0.00,WeatherDisplay:10.37,2013-03-05 22:28:00,
2013-03-05 17:33:00,71.4,19.7,30.12,North,0,0.0,0.0,14,0.00,CLR,BKN,0.00,WeatherDisplay:10.37,2013-03-05 22:33:00,
2013-03-05 17:38:00,71.1,19.4,30.12,North,0,0.0,0.0,14,0.00,CLR,BKN,0.00,WeatherDisplay:10.37,2013-03-05 22:38:00,
2013-03-05 17:43:00,70.7,19.1,30.15,North,0,0.0,0.0,14,0.00,CLR,BKN,0.00,WeatherDisplay:10.37,2013-03-05 22:43:00,
2013-03-05 17:48:00,70.2,23.3,30.15,North,0,0.0,0.0,17,0.00,CLR,BKN,0.00,WeatherDisplay:10.37,2013-03-05 22:48:00,
2013-03-05 17:53:00,70.0,23.1,30.15,North,0,0.0,0.0,17,0.00,CLR,BKN,0.00,WeatherDisplay:10.37,2013-03-05 22:53:00,
2013-03-05 17:58:00,69.8,23.0,30.15,North,0,0.0,0.0,17,0.00,CLR,BKN,0.00,WeatherDisplay:10.37,2013-03-05 22:58:00,
2013-03-05 18:03:00,69.4,26.6,30.15,North,0,0.0,0.0,20,0.00,CLR,BKN,0.00,WeatherDisplay:10.37,2013-03-05 23:03:00,
2013-03-05 18:08:00,68.9,26.1,30.15,North,0,0.0,0.0,20,0.00,CLR,BKN,0.00,WeatherDisplay:10.37,2013-03-05 23:08:00,
2013-03-05 18:13:00,68.5,25.8,30.15,North,0,0.0,0.0,20,0.00,CLR,BKN,0.00,WeatherDisplay:10.37,2013-03-05 23:13:00,
2013-03-05 18:18:00,68.2,27.9,30.15,North,0,0.0,0.0,22,0.00,CLR,BKN,0.00,WeatherDisplay:10.37,2013-03-05 23:18:00,
2013-03-05 18:23:00,67.8,28.6,30.15,North,0,0.0,0.0,23,0.00,CLR,BKN,0.00,WeatherDisplay:10.37,2013-03-05 23:23:00,
2013-03-05 18:28:00,67.6,28.5,30.15,North,0,0.0,0.0,23,0.00,CLR,BKN,0.00,WeatherDisplay:10.37,2013-03-05 23:28:00,
2013-03-05 18:33:00,67.3,28.2,30.15,North,0,0.0,0.0,23,0.00,CLR,BKN,0.00,WeatherDisplay:10.37,2013-03-05 23:33:00,
2013-03-05 18:38:00,67.1,28.0,30.15,North,0,0.0,0.0,23,0.00,CLR,BKN,0.00,WeatherDisplay:10.37,2013-03-05 23:38:00,
2013-03-05 18:43:00,66.9,28.9,30.15,North,0,0.0,0.0,24,0.00,CLR,BKN,0.00,WeatherDisplay:10.37,2013-03-05 23:43:00,
2013-03-05 18:48:00,66.6,28.6,30.15,North,0,0.0,0.0,24,0.00,CLR,BKN,0.00,WeatherDisplay:10.37,2013-03-05 23:48:00,
2013-03-05 18:53:00,66.2,28.3,30.15,North,0,0.0,0.0,24,0.00,CLR,BKN,0.00,WeatherDisplay:10.37,2013-03-05 23:53:00,
2013-03-05 18:58:00,66.0,29.2,30.12,North,0,0.0,0.0,25,0.00,CLR,BKN,0.00,WeatherDisplay:10.37,2013-03-05 23:58:00,
2013-03-05 19:03:00,65.7,28.8,30.12,North,0,0.0,0.0,25,0.00,CLR,BKN,0.00,WeatherDisplay:10.37,2013-03-06 00:03:00,
2013-03-05 19:08:00,65.3,28.5,30.12,North,0,0.0,0.0,25,0.00,CLR,BKN,0.00,WeatherDisplay:10.37,2013-03-06 00:08:00,
2013-03-05 19:13:00,64.9,28.2,30.12,North,0,0.0,0.0,25,0.00,CLR,BKN,0.00,WeatherDisplay:10.37,2013-03-06 00:13:00,
2013-03-05 19:18:00,64.6,28.9,30.12,North,0,0.0,0.0,26,0.00,CLR,BKN,0.00,WeatherDisplay:10.37,2013-03-06 00:18:00,
2013-03-05 19:23:00,64.2,28.6,30.12,North,0,0.0,0.0,26,0.00,CLR,BKN,0.00,WeatherDisplay:10.37,2013-03-06 00:23:00,
2013-03-05 19:28:00,63.9,28.3,30.15,North,0,0.0,0.0,26,0.00,CLR,BKN,0.00,WeatherDisplay:10.37,2013-03-06 00:28:00,
2013-03-05 19:33:00,63.5,28.9,30.15,North,0,0.0,0.0,27,0.00,CLR,BKN,0.00,WeatherDisplay:10.37,2013-03-06 00:33:00,
2013-03-05 19:38:00,63.1,28.6,30.15,North,0,0.0,0.0,27,0.00,CLR,BKN,0.00,WeatherDisplay:10.37,2013-03-06 00:38:00,
2013-03-05 19:43:00,63.1,31.2,30.15,North,0,0.0,0.0,30,0.00,CLR,BKN,0.00,WeatherDisplay:10.37,2013-03-06 00:43:00,
2013-03-05 19:48:00,62.8,33.2,30.12,North,0,0.0,0.0,33,0.00,CLR,BKN,0.00,WeatherDisplay:10.37,2013-03-06 00:48:00,
2013-03-05 19:53:00,62.6,33.1,30.12,North,0,0.0,0.0,33,0.00,CLR,BKN,0.00,WeatherDisplay:10.37,2013-03-06 00:53:00,
2013-03-05 19:58:00,62.4,33.7,30.15,North,0,0.0,0.0,34,0.00,CLR,BKN,0.00,WeatherDisplay:10.37,2013-03-06 00:58:00,
2013-03-05 20:03:00,61.9,33.2,30.15,North,0,0.0,0.0,34,0.00,CLR,BKN,0.00,WeatherDisplay:10.37,2013-03-06 01:03:00,
2013-03-05 20:08:00,61.7,33.0,30.15,North,0,0.0,0.0,34,0.00,CLR,BKN,0.00,WeatherDisplay:10.37,2013-03-06 01:08:00,
2013-03-05 20:13:00,61.5,35.0,30.12,North,0,0.0,0.0,37,0.00,CLR,BKN,0.00,WeatherDisplay:10.37,2013-03-06 01:13:00,
2013-03-05 20:18:00,61.3,35.5,30.12,North,0,0.0,0.0,38,0.00,CLR,BKN,0.00,WeatherDisplay:10.37,2013-03-06 01:18:00,
2013-03-05 20:23:00,61.3,37.4,30.12,North,0,0.0,0.0,41,0.00,CLR,BKN,0.00,WeatherDisplay:10.37,2013-03-06 01:23:00,
2013-03-05 20:28:00,61.2,37.9,30.12,North,0,0.0,0.0,42,0.00,CLR,BKN,0.00,WeatherDisplay:10.37,2013-03-06 01:28:00,
2013-03-05 20:33:00,60.8,36.9,30.12,North,0,0.0,0.0,41,0.00,CLR,BKN,0.00,WeatherDisplay:10.37,2013-03-06 01:33:00,
2013-03-05 20:38:00,60.6,36.8,30.12,North,0,0.0,0.0,41,0.00,CLR,BKN,0.00,WeatherDisplay:10.37,2013-03-06 01:38:00,
2013-03-05 20:43:00,60.6,38.0,30.12,North,0,0.0,0.0,43,0.00,CLR,BKN,0.00,WeatherDisplay:10.37,2013-03-06 01:43:00,
2013-03-05 20:48:00,60.4,37.2,30.12,North,0,0.0,0.0,42,0.00,CLR,BKN,0.00,WeatherDisplay:10.37,2013-03-06 01:48:00,
2013-03-05 20:53:00,60.4,38.4,30.12,North,0,0.0,0.0,44,0.00,CLR,BKN,0.00,WeatherDisplay:10.37,2013-03-06 01:53:00,
2013-03-05 20:58:00,60.4,38.4,30.12,North,0,0.0,0.0,44,0.00,CLR,BKN,0.00,WeatherDisplay:10.37,2013-03-06 01:58:00,
2013-03-05 21:03:00,60.1,38.1,30.12,North,0,0.0,0.0,44,0.00,CLR,BKN,0.00,WeatherDisplay:10.37,2013-03-06 02:03:00,
2013-03-05 21:08:00,60.1,38.1,30.12,North,0,0.0,0.0,44,0.00,CLR,BKN,0.00,WeatherDisplay:10.37,2013-03-06 02:08:00,
2013-03-05 21:13:00,60.1,38.7,30.12,North,0,0.0,0.0,45,0.00,CLR,BKN,0.00,WeatherDisplay:10.37,2013-03-06 02:13:00,
2013-03-05 21:18:00,59.9,38.5,30.12,North,0,0.0,0.0,45,0.00,CLR,BKN,0.00,WeatherDisplay:10.37,2013-03-06 02:18:00,
2013-03-05 21:23:00,59.9,38.5,30.12,North,0,0.0,0.0,45,0.00,CLR,BKN,0.00,WeatherDisplay:10.37,2013-03-06 02:23:00,
2013-03-05 21:28:00,59.7,38.3,30.15,North,0,0.0,0.0,45,0.00,CLR,BKN,0.00,WeatherDisplay:10.37,2013-03-06 02:28:00,
2013-03-05 21:33:00,59.5,38.7,30.15,North,0,0.0,0.0,46,0.00,CLR,BKN,0.00,WeatherDisplay:10.37,2013-03-06 02:33:00,
2013-03-05 21:38:00,59.2,38.4,30.15,North,0,0.0,0.0,46,0.00,CLR,BKN,0.00,WeatherDisplay:10.37,2013-03-06 02:38:00,
2013-03-05 21:43:00,59.4,38.6,30.12,North,0,0.0,0.0,46,0.00,CLR,BKN,0.00,WeatherDisplay:10.37,2013-03-06 02:43:00,
2013-03-05 21:48:00,59.2,38.9,30.12,North,0,0.0,0.0,47,0.00,CLR,BKN,0.00,WeatherDisplay:10.37,2013-03-06 02:48:00,
2013-03-05 21:53:00,58.8,38.6,30.12,North,0,0.0,0.0,47,0.00,CLR,BKN,0.00,WeatherDisplay:10.37,2013-03-06 02:53:00,
2013-03-05 21:58:00,58.5,38.3,30.12,North,0,0.0,0.0,47,0.00,CLR,BKN,0.00,WeatherDisplay:10.37,2013-03-06 02:58:00,
2013-03-05 22:03:00,58.3,38.1,30.12,North,0,0.0,0.0,47,0.00,CLR,BKN,0.00,WeatherDisplay:10.37,2013-03-06 03:03:00,
2013-03-05 22:08:00,58.1,38.0,30.12,North,0,0.0,0.0,47,0.00,CLR,BKN,0.00,WeatherDisplay:10.37,2013-03-06 03:08:00,
2013-03-05 22:13:00,58.1,38.0,30.12,North,0,0.0,0.0,47,0.00,CLR,BKN,0.00,WeatherDisplay:10.37,2013-03-06 03:13:00,
2013-03-05 22:18:00,58.6,40.0,30.12,North,0,0.0,0.0,50,0.00,CLR,BKN,0.00,WeatherDisplay:10.37,2013-03-06 03:18:00,
2013-03-05 22:23:00,59.0,43.3,30.12,North,0,0.0,0.0,56,0.00,CLR,BKN,0.00,WeatherDisplay:10.37,2013-03-06 03:23:00,
2013-03-05 22:28:00,59.2,44.4,30.12,North,0,0.0,0.0,58,0.00,CLR,BKN,0.00,WeatherDisplay:10.37,2013-03-06 03:28:00,
2013-03-05 22:33:00,59.5,46.5,30.12,North,0,0.0,0.0,62,0.00,CLR,BKN,0.00,WeatherDisplay:10.37,2013-03-06 03:33:00,
2013-03-05 22:38:00,59.5,46.9,30.12,North,0,0.0,0.0,63,0.00,CLR,BKN,0.00,WeatherDisplay:10.37,2013-03-06 03:38:00,
2013-03-05 22:43:00,59.7,49.1,30.12,North,0,0.0,0.0,68,0.00,CLR,BKN,0.00,WeatherDisplay:10.37,2013-03-06 03:43:00,
2013-03-05 22:48:00,60.1,50.6,30.12,North,0,0.0,0.0,71,0.00,CLR,BKN,0.00,WeatherDisplay:10.37,2013-03-06 03:48:00,
2013-03-05 22:53:00,60.3,51.6,30.12,North,0,0.0,0.0,73,0.00,CLR,BKN,0.00,WeatherDisplay:10.37,2013-03-06 03:53:00,
2013-03-05 22:58:00,60.3,51.9,30.12,North,0,0.0,0.0,74,0.00,CLR,BKN,0.00,WeatherDisplay:10.37,2013-03-06 03:58:00,
2013-03-05 23:03:00,60.3,51.9,30.12,North,0,0.0,0.0,74,0.00,CLR,BKN,0.00,WeatherDisplay:10.37,2013-03-06 04:03:00,
2013-03-05 23:08:00,60.4,52.5,30.12,North,0,0.0,0.0,75,0.00,CLR,BKN,0.00,WeatherDisplay:10.37,2013-03-06 04:08:00,
2013-03-05 23:13:00,60.8,53.2,30.12,North,0,0.0,0.0,76,0.00,CLR,BKN,0.00,WeatherDisplay:10.37,2013-03-06 04:13:00,
2013-03-05 23:18:00,60.8,53.2,30.12,North,0,0.0,0.0,76,0.00,CLR,BKN,0.00,WeatherDisplay:10.37,2013-03-06 04:18:00,
2013-03-05 23:23:00,61.0,53.7,30.12,North,0,0.0,0.0,77,0.00,CLR,BKN,0.00,WeatherDisplay:10.37,2013-03-06 04:23:00,
2013-03-05 23:28:00,61.3,54.4,30.12,North,0,0.0,0.0,78,0.00,CLR,BKN,0.00,WeatherDisplay:10.37,2013-03-06 04:28:00,
2013-03-05 23:33:00,61.5,54.6,30.12,North,0,0.0,0.0,78,0.00,CLR,BKN,0.00,WeatherDisplay:10.37,2013-03-06 04:33:00,
2013-03-05 23:38:00,61.7,54.8,30.12,North,0,0.0,0.0,78,0.00,CLR,BKN,0.00,WeatherDisplay:10.37,2013-03-06 04:38:00,
2013-03-05 23:43:00,61.7,54.4,30.09,North,0,0.0,0.0,77,0.00,CLR,BKN,0.00,WeatherDisplay:10.37,2013-03-06 04:43:00,
2013-03-05 23:48:00,61.9,54.6,30.09,North,0,0.0,0.0,77,0.00,CLR,BKN,0.00,WeatherDisplay:10.37,2013-03-06 04:48:00,
2013-03-05 23:53:00,62.1,54.4,30.09,North,0,0.0,0.0,76,0.00,CLR,BKN,0.00,WeatherDisplay:10.37,2013-03-06 04:53:00,
2013-03-05 23:58:00,62.1,53.7,30.09,North,0,0.0,0.0,74,0.00,CLR,BKN,0.00,WeatherDisplay:10.37,2013-03-06 04:58:00,